createdAt,value
2023-01-30T00:01:17.481Z,92.16
2023-01-30T00:03:44.369Z,92.46
2023-01-30T00:06:16.557Z,92.45
2023-01-30T00:08:43.369Z,92.67
2023-01-30T00:11:12.349Z,92.37
2023-01-30T00:13:40.522Z,92.64
2023-01-30T00:16:09.823Z,92.56
2023-01-30T00:18:37.652Z,92.58
2023-01-30T00:21:07.534Z,92.74
2023-01-30T00:23:36.329Z,92.67
2023-01-30T00:26:04.226Z,92.74
2023-01-30T00:28:31.211Z,92.81
2023-01-30T00:30:58.403Z,92.70
2023-01-30T00:33:27.188Z,92.81
2023-01-30T00:35:56.675Z,92.73
2023-01-30T00:38:25.361Z,92.64
2023-01-30T00:40:52.225Z,92.98
2023-01-30T00:43:39.453Z,92.94
2023-01-30T00:46:33.323Z,92.74
2023-01-30T00:48:59.918Z,92.73
2023-01-30T00:51:26.517Z,92.75
2023-01-30T00:53:53.445Z,92.95
2023-01-30T00:56:20.320Z,92.91
2023-01-30T00:58:47.521Z,92.94
2023-01-30T01:01:14.836Z,92.93
2023-01-30T01:03:41.654Z,92.94
2023-01-30T01:06:09.812Z,92.93
2023-01-30T01:08:36.333Z,92.84
2023-01-30T01:11:07.101Z,92.81
2023-01-30T01:13:35.271Z,92.87
2023-01-30T01:16:04.998Z,92.96
2023-01-30T01:18:34.346Z,92.90
2023-01-30T01:21:00.941Z,92.69
2023-01-30T01:23:28.892Z,92.99
2023-01-30T01:26:01.105Z,93.02
2023-01-30T01:28:27.653Z,93.22
2023-01-30T01:30:57.331Z,93.29
2023-01-30T01:33:28.523Z,93.48
2023-01-30T01:36:05.709Z,93.30
2023-01-30T01:38:32.378Z,93.64
2023-01-30T01:41:02.146Z,93.53
2023-01-30T01:44:08.796Z,93.67
2023-01-30T01:46:54.151Z,93.50
2023-01-30T01:49:35.681Z,93.75
2023-01-30T01:52:04.413Z,93.68
2023-01-30T01:54:51.442Z,93.82
2023-01-30T01:57:40.278Z,93.96
2023-01-30T02:00:13.214Z,93.95
2023-01-30T02:03:12.986Z,94.13
2023-01-30T02:05:45.666Z,94.20
2023-01-30T02:08:18.528Z,94.28
2023-01-30T02:11:07.437Z,94.16
2023-01-30T02:13:37.496Z,94.46
2023-01-30T02:16:06.694Z,94.62
2023-01-30T02:18:36.124Z,94.39
2023-01-30T02:21:41.273Z,94.54
2023-01-30T02:24:16.965Z,94.72
2023-01-30T02:27:01.869Z,94.77
2023-01-30T02:29:43.554Z,94.98
2023-01-30T02:32:22.110Z,95.05
2023-01-30T02:34:51.787Z,95.03
2023-01-30T02:37:21.000Z,95.22
2023-01-30T02:40:11.677Z,95.17
2023-01-30T02:43:11.446Z,95.16
2023-01-30T02:46:03.176Z,95.38
2023-01-30T02:48:49.872Z,95.30
2023-01-30T02:51:36.533Z,95.38
2023-01-30T02:54:06.390Z,95.53
2023-01-30T02:56:50.128Z,95.58
2023-01-30T02:59:22.944Z,95.74
2023-01-30T03:02:15.113Z,95.86
2023-01-30T03:04:50.486Z,95.86
2023-01-30T03:07:22.944Z,95.69
2023-01-30T03:10:27.032Z,95.77
2023-01-30T03:13:22.154Z,95.75
2023-01-30T03:15:54.414Z,95.94
2023-01-30T03:18:21.642Z,95.76
2023-01-30T03:20:48.339Z,95.82
2023-01-30T03:23:14.948Z,95.82
2023-01-30T03:25:45.050Z,95.76
2023-01-30T03:28:17.104Z,95.84
2023-01-30T03:30:43.880Z,95.95
2023-01-30T03:33:12.670Z,95.89
2023-01-30T03:35:39.405Z,96.08
2023-01-30T03:38:11.176Z,95.99
2023-01-30T03:40:38.113Z,95.89
2023-01-30T03:43:04.977Z,96.10
2023-01-30T03:45:32.788Z,96.11
2023-01-30T03:48:01.562Z,95.98
2023-01-30T03:50:32.278Z,95.89
2023-01-30T03:52:58.849Z,96.03
2023-01-30T03:55:25.754Z,95.98
2023-01-30T03:57:58.849Z,95.90
2023-01-30T04:00:25.583Z,96.07
2023-01-30T04:02:53.793Z,95.68
2023-01-30T04:05:21.079Z,95.64
2023-01-30T04:07:51.601Z,95.44
2023-01-30T04:10:22.468Z,95.32
2023-01-30T04:12:49.769Z,95.55
2023-01-30T04:15:16.666Z,95.35
2023-01-30T04:17:44.731Z,95.31
2023-01-30T04:20:12.051Z,95.23
2023-01-30T04:22:38.833Z,95.05
2023-01-30T04:25:09.021Z,94.99
2023-01-30T04:27:35.844Z,94.84
2023-01-30T04:30:02.568Z,94.79
2023-01-30T04:32:29.337Z,94.69
2023-01-30T04:34:56.494Z,94.57
2023-01-30T04:37:23.457Z,94.98
2023-01-30T04:39:50.294Z,94.34
2023-01-30T04:42:17.228Z,94.45
2023-01-30T04:44:43.802Z,93.91
2023-01-30T04:47:10.633Z,94.05
2023-01-30T04:49:37.480Z,93.87
2023-01-30T04:52:04.269Z,93.63
2023-01-30T04:54:31.103Z,93.71
2023-01-30T04:56:57.983Z,93.84
2023-01-30T04:59:24.585Z,93.37
2023-01-30T05:01:53.789Z,92.98
2023-01-30T05:04:22.843Z,93.04
2023-01-30T05:06:52.276Z,92.85
2023-01-30T05:09:19.119Z,92.95
2023-01-30T05:11:46.257Z,92.76
2023-01-30T05:14:15.499Z,92.53
2023-01-30T05:16:44.155Z,92.16
2023-01-30T05:19:13.000Z,91.83
2023-01-30T05:21:42.426Z,91.53
2023-01-30T05:24:10.733Z,91.09
2023-01-30T05:26:37.466Z,90.58
2023-01-30T05:29:07.053Z,90.52
2023-01-30T05:31:35.940Z,90.24
2023-01-30T05:34:03.872Z,90.06
2023-01-30T05:36:30.742Z,89.53
2023-01-30T05:38:59.805Z,89.50
2023-01-30T05:41:28.086Z,89.06
2023-01-30T05:43:54.520Z,88.95
2023-01-30T05:46:21.261Z,88.17
2023-01-30T05:48:49.390Z,87.45
2023-01-30T05:51:21.981Z,87.13
2023-01-30T05:53:51.885Z,86.62
2023-01-30T05:56:19.643Z,86.24
2023-01-30T05:58:55.263Z,85.85
2023-01-30T06:01:22.936Z,85.84
2023-01-30T06:03:52.264Z,85.74
2023-01-30T06:06:19.747Z,86.01
2023-01-30T06:08:46.992Z,86.30
2023-01-30T06:11:17.859Z,86.26
2023-01-30T06:13:45.856Z,86.46
2023-01-30T06:16:17.721Z,86.78
2023-01-30T06:18:47.482Z,86.72
2023-01-30T06:21:15.314Z,86.67
2023-01-30T06:23:42.602Z,86.35
2023-01-30T06:26:11.781Z,86.03
2023-01-30T06:28:38.858Z,85.65
2023-01-30T06:31:38.606Z,85.46
2023-01-30T06:34:05.660Z,85.52
2023-01-30T06:36:32.547Z,85.53
2023-01-30T06:38:59.139Z,85.25
2023-01-30T06:41:25.663Z,85.42
2023-01-30T06:43:52.388Z,85.14
2023-01-30T06:46:21.714Z,84.99
2023-01-30T06:48:48.524Z,85.08
2023-01-30T06:51:17.639Z,84.66
2023-01-30T06:53:46.450Z,84.74
2023-01-30T06:56:13.041Z,84.53
2023-01-30T06:58:39.838Z,84.53
2023-01-30T07:01:06.496Z,84.57
2023-01-30T07:03:33.309Z,84.55
2023-01-30T07:06:00.264Z,84.11
2023-01-30T07:08:28.522Z,83.29
2023-01-30T07:10:55.010Z,83.29
2023-01-30T07:13:21.814Z,82.92
2023-01-30T07:15:48.476Z,83.12
2023-01-30T07:18:15.385Z,83.36
2023-01-30T07:20:42.535Z,83.83
2023-01-30T07:23:09.823Z,83.82
2023-01-30T07:25:37.717Z,83.83
2023-01-30T07:28:04.870Z,83.81
2023-01-30T07:30:49.120Z,83.60
2023-01-30T07:33:15.789Z,83.77
2023-01-30T07:35:42.360Z,83.49
2023-01-30T07:38:09.218Z,82.93
2023-01-30T07:40:38.306Z,82.63
2023-01-30T07:43:07.498Z,82.73
2023-01-30T07:45:44.244Z,82.22
2023-01-30T07:48:13.394Z,82.38
2023-01-30T07:50:40.487Z,81.97
2023-01-30T07:53:10.455Z,82.29
2023-01-30T07:55:37.738Z,81.94
2023-01-30T07:58:07.154Z,81.94
2023-01-30T08:00:34.714Z,81.01
2023-01-30T08:03:01.573Z,80.27
2023-01-30T08:05:29.325Z,79.40
2023-01-30T08:07:56.901Z,79.44
2023-01-30T08:10:28.323Z,78.94
2023-01-30T08:12:55.497Z,78.29
2023-01-30T08:15:23.178Z,77.47
2023-01-30T08:17:57.277Z,76.41
2023-01-30T08:20:26.063Z,76.53
2023-01-30T08:22:53.256Z,76.31
2023-01-30T08:25:23.001Z,76.08
2023-01-30T08:27:52.175Z,75.49
2023-01-30T08:30:20.433Z,75.31
2023-01-30T08:32:48.275Z,74.19
2023-01-30T08:35:15.474Z,74.70
2023-01-30T08:37:42.451Z,76.34
2023-01-30T08:40:10.252Z,76.88
2023-01-30T08:42:37.117Z,76.78
2023-01-30T08:45:04.109Z,76.68
2023-01-30T08:47:31.619Z,76.79
2023-01-30T08:49:58.516Z,77.31
2023-01-30T08:52:27.622Z,77.56
2023-01-30T08:54:54.165Z,77.81
2023-01-30T08:57:21.108Z,77.50
2023-01-30T08:59:48.025Z,77.66
2023-01-30T09:02:14.927Z,77.84
2023-01-30T09:04:42.882Z,78.02
2023-01-30T09:07:09.500Z,77.58
2023-01-30T09:09:37.685Z,77.14
2023-01-30T09:12:04.738Z,77.42
2023-01-30T09:14:32.685Z,77.07
2023-01-30T09:17:00.658Z,76.77
2023-01-30T09:19:29.056Z,77.18
2023-01-30T09:21:56.505Z,77.41
2023-01-30T09:24:26.982Z,77.09
2023-01-30T09:26:59.694Z,76.68
2023-01-30T09:29:27.462Z,77.08
2023-01-30T09:31:56.595Z,77.18
2023-01-30T09:34:29.031Z,77.40
2023-01-30T09:36:57.811Z,77.61
2023-01-30T09:39:24.702Z,77.37
2023-01-30T09:42:18.620Z,76.96
2023-01-30T09:45:14.986Z,76.85
2023-01-30T09:48:10.453Z,76.38
2023-01-30T09:51:09.568Z,76.02
2023-01-30T09:53:36.202Z,75.71
2023-01-30T09:56:02.958Z,75.75
2023-01-30T09:58:51.882Z,76.04
2023-01-30T10:01:30.396Z,75.89
2023-01-30T10:04:20.457Z,76.12
2023-01-30T10:07:19.416Z,76.12
2023-01-30T10:10:18.310Z,76.21
2023-01-30T10:13:01.142Z,76.28
2023-01-30T10:15:39.777Z,76.66
2023-01-30T10:18:18.543Z,76.31
2023-01-30T10:21:13.710Z,76.41
2023-01-30T10:23:47.594Z,75.77
2023-01-30T10:26:21.888Z,75.93
2023-01-30T10:29:08.403Z,75.94
2023-01-30T10:31:48.550Z,75.98
2023-01-30T10:34:22.815Z,75.88
2023-01-30T10:37:20.132Z,75.93
2023-01-30T10:40:13.264Z,75.44
2023-01-30T10:42:52.021Z,75.35
2023-01-30T10:45:29.168Z,75.60
2023-01-30T10:48:17.010Z,75.11
2023-01-30T10:51:06.282Z,75.35
2023-01-30T10:53:58.166Z,74.95
2023-01-30T10:56:48.388Z,74.55
2023-01-30T10:59:33.667Z,73.83
2023-01-30T11:02:07.791Z,73.67
2023-01-30T11:04:41.684Z,73.19
2023-01-30T11:07:11.519Z,71.49
2023-01-30T11:09:57.737Z,70.89
2023-01-30T11:12:24.982Z,71.05
2023-01-30T11:15:04.373Z,70.69
2023-01-30T11:17:35.666Z,70.53
2023-01-30T11:20:13.658Z,70.49
2023-01-30T11:22:49.783Z,70.85
2023-01-30T11:25:22.161Z,71.35
2023-01-30T11:28:00.258Z,70.44
2023-01-30T11:30:31.232Z,70.85
2023-01-30T11:33:09.684Z,71.44
2023-01-30T11:35:44.172Z,71.13
2023-01-30T11:38:33.037Z,71.57
2023-01-30T11:41:07.378Z,70.68
2023-01-30T11:43:37.507Z,70.52
2023-01-30T11:46:09.118Z,69.37
2023-01-30T11:49:11.158Z,69.15
2023-01-30T11:51:47.835Z,69.28
2023-01-30T11:54:38.060Z,69.18
2023-01-30T11:57:13.083Z,68.53
2023-01-30T12:00:22.181Z,68.48
2023-01-30T12:02:51.398Z,68.27
2023-01-30T12:05:42.597Z,68.50
2023-01-30T12:08:39.452Z,68.28
2023-01-30T12:11:30.244Z,68.02
2023-01-30T12:14:24.228Z,67.76
2023-01-30T12:16:59.093Z,67.95
2023-01-30T12:19:47.339Z,67.79
2023-01-30T12:22:47.437Z,68.78
2023-01-30T12:25:22.513Z,69.00
2023-01-30T12:28:01.905Z,69.02
2023-01-30T12:30:33.506Z,67.92
2023-01-30T12:36:09.820Z,68.43
2023-01-30T12:38:58.626Z,69.06
2023-01-30T12:41:28.988Z,68.71
2023-01-30T12:44:05.260Z,67.94
2023-01-30T12:46:41.142Z,67.70
2023-01-30T12:49:16.870Z,67.95
2023-01-30T12:52:05.748Z,67.90
2023-01-30T12:54:57.869Z,67.88
2023-01-30T12:58:11.665Z,68.20
2023-01-30T13:01:02.930Z,68.58
2023-01-30T13:03:29.407Z,67.53
2023-01-30T13:06:20.784Z,67.36
2023-01-30T13:09:20.264Z,68.03
2023-01-30T13:12:02.723Z,67.93
2023-01-30T13:14:41.319Z,68.28
2023-01-30T13:17:33.691Z,68.31
2023-01-30T13:20:04.619Z,68.84
2023-01-30T13:22:50.381Z,68.61
2023-01-30T13:25:32.047Z,68.98
2023-01-30T13:28:04.704Z,68.59
2023-01-30T13:30:34.213Z,68.53
2023-01-30T13:33:14.632Z,68.51
2023-01-30T13:35:50.758Z,68.86
2023-01-30T13:38:28.092Z,68.75
2023-01-30T13:40:58.612Z,68.46
2023-01-30T13:43:35.477Z,68.84
2023-01-30T13:46:08.364Z,69.51
2023-01-30T13:48:55.287Z,69.41
2023-01-30T13:51:54.623Z,69.35
2023-01-30T13:55:15.305Z,69.36
2023-01-30T13:57:51.377Z,69.52
2023-01-30T14:00:38.655Z,69.44
2023-01-30T14:03:08.590Z,69.55
2023-01-30T14:06:03.314Z,68.93
2023-01-30T14:08:35.342Z,68.55
2023-01-30T14:11:02.637Z,69.14
2023-01-30T14:13:31.274Z,68.10
2023-01-30T14:16:01.128Z,68.57
2023-01-30T14:18:34.595Z,69.26
2023-01-30T14:21:15.153Z,68.96
2023-01-30T14:23:54.017Z,69.32
2023-01-30T14:26:49.168Z,69.36
2023-01-30T14:29:52.137Z,69.58
2023-01-30T14:32:52.573Z,69.59
2023-01-30T14:35:25.495Z,69.77
2023-01-30T14:38:08.763Z,69.83
2023-01-30T14:40:37.779Z,69.62
2023-01-30T14:43:34.092Z,70.08
2023-01-30T14:46:08.587Z,69.80
2023-01-30T14:48:38.416Z,70.14
2023-01-30T14:51:33.302Z,70.17
2023-01-30T14:54:14.467Z,70.16
2023-01-30T14:57:06.012Z,69.70
2023-01-30T14:59:35.291Z,70.17
2023-01-30T15:02:14.171Z,70.23
2023-01-30T15:04:51.564Z,70.33
2023-01-30T15:07:43.732Z,70.37
2023-01-30T15:10:38.788Z,70.27
2023-01-30T15:13:36.932Z,69.88
2023-01-30T15:16:15.709Z,70.35
2023-01-30T15:19:03.992Z,69.54
2023-01-30T15:22:07.166Z,69.91
2023-01-30T15:25:01.168Z,70.54
2023-01-30T15:28:03.086Z,70.43
2023-01-30T15:30:58.671Z,70.57
2023-01-30T15:33:31.261Z,70.70
2023-01-30T15:35:59.540Z,70.68
2023-01-30T15:38:35.087Z,70.66
2023-01-30T15:41:04.493Z,70.70
2023-01-30T15:43:52.538Z,70.47
2023-01-30T15:46:38.226Z,70.68
2023-01-30T15:49:24.143Z,70.94
2023-01-30T15:51:52.884Z,70.47
2023-01-30T15:54:23.924Z,70.92
2023-01-30T15:56:50.838Z,70.94
2023-01-30T15:59:34.150Z,71.33
2023-01-30T16:02:08.339Z,71.35
2023-01-30T16:04:36.419Z,71.56
2023-01-30T16:07:16.223Z,72.40
2023-01-30T16:09:49.614Z,72.09
2023-01-30T16:12:30.074Z,72.63
2023-01-30T16:15:12.347Z,72.71
2023-01-30T16:17:54.250Z,73.41
2023-01-30T16:20:21.434Z,74.26
2023-01-30T16:22:48.521Z,74.85
2023-01-30T16:25:22.410Z,74.89
2023-01-30T16:27:51.641Z,74.77
2023-01-30T16:30:24.375Z,75.06
2023-01-30T16:32:53.173Z,75.39
2023-01-30T16:35:28.194Z,75.51
2023-01-30T16:37:57.210Z,75.69
2023-01-30T16:40:33.189Z,76.09
2023-01-30T16:43:01.626Z,75.97
2023-01-30T16:45:34.289Z,76.23
2023-01-30T16:48:35.503Z,76.48
2023-01-30T16:51:02.024Z,76.65
2023-01-30T16:53:32.318Z,76.66
2023-01-30T16:56:14.820Z,76.80
2023-01-30T16:58:46.668Z,76.92
2023-01-30T17:01:13.706Z,76.94
2023-01-30T17:03:53.000Z,77.37
2023-01-30T17:06:42.980Z,77.46
2023-01-30T17:09:36.759Z,77.68
2023-01-30T17:12:31.201Z,77.93
2023-01-30T17:15:13.271Z,78.12
2023-01-30T17:17:44.712Z,78.19
2023-01-30T17:20:13.281Z,78.39
2023-01-30T17:22:44.296Z,78.41
2023-01-30T17:25:39.782Z,78.67
2023-01-30T17:28:12.326Z,78.68
2023-01-30T17:30:40.827Z,78.98
2023-01-30T17:33:07.494Z,79.21
2023-01-30T17:35:34.188Z,79.54
2023-01-30T17:38:06.330Z,79.79
2023-01-30T17:40:38.885Z,80.31
2023-01-30T17:43:05.825Z,80.07
2023-01-30T17:45:32.317Z,80.43
2023-01-30T17:47:58.958Z,80.63
2023-01-30T17:50:26.002Z,80.70
2023-01-30T17:52:52.844Z,80.95
2023-01-30T17:55:21.384Z,80.84
2023-01-30T17:57:48.795Z,80.77
2023-01-30T18:00:19.593Z,81.02
2023-01-30T18:02:46.844Z,81.23
2023-01-30T18:05:16.230Z,81.03
2023-01-30T18:07:43.330Z,81.16
2023-01-30T18:10:19.687Z,81.32
2023-01-30T18:12:47.438Z,81.24
2023-01-30T18:15:17.570Z,81.12
2023-01-30T18:17:48.437Z,81.14
2023-01-30T18:20:20.064Z,80.93
2023-01-30T18:22:47.260Z,80.70
2023-01-30T18:25:15.668Z,80.95
2023-01-30T18:27:44.185Z,80.71
2023-01-30T18:30:20.271Z,80.80
2023-01-30T18:32:53.446Z,81.08
2023-01-30T18:35:21.783Z,81.03
2023-01-30T18:37:50.144Z,81.33
2023-01-30T18:40:20.602Z,81.77
2023-01-30T18:42:47.717Z,81.78
2023-01-30T18:45:14.763Z,82.30
2023-01-30T18:48:00.780Z,82.47
2023-01-30T18:50:28.695Z,82.77
2023-01-30T18:52:55.479Z,82.96
2023-01-30T18:55:26.946Z,83.02
2023-01-30T18:57:53.849Z,83.40
2023-01-30T19:00:21.635Z,83.55
2023-01-30T19:02:53.034Z,83.86
2023-01-30T19:05:21.873Z,84.01
2023-01-30T19:07:48.702Z,84.13
2023-01-30T19:10:17.785Z,84.03
2023-01-30T19:13:03.943Z,83.97
2023-01-30T19:15:30.730Z,84.01
2023-01-30T19:17:58.274Z,83.90
2023-01-30T19:20:25.847Z,84.01
2023-01-30T19:22:55.136Z,83.74
2023-01-30T19:25:22.309Z,83.63
2023-01-30T19:27:48.910Z,83.74
2023-01-30T19:30:15.710Z,83.72
2023-01-30T19:32:42.230Z,83.77
2023-01-30T19:35:09.116Z,83.92
2023-01-30T19:37:39.452Z,84.25
2023-01-30T19:40:09.684Z,84.43
2023-01-30T19:42:38.777Z,84.55
2023-01-30T19:45:09.417Z,84.56
2023-01-30T19:47:35.942Z,84.63
2023-01-30T19:50:02.675Z,84.54
2023-01-30T19:52:32.596Z,84.79
2023-01-30T19:54:59.394Z,84.92
2023-01-30T19:57:30.664Z,85.15
2023-01-30T19:59:57.861Z,85.38
2023-01-30T20:02:31.085Z,85.69
2023-01-30T20:04:59.310Z,85.69
2023-01-30T20:07:28.415Z,85.78
2023-01-30T20:09:56.283Z,85.91
2023-01-30T20:12:24.423Z,86.09
2023-01-30T20:14:51.389Z,86.38
2023-01-30T20:17:18.232Z,86.21
2023-01-30T20:19:44.803Z,86.36
2023-01-30T20:22:14.092Z,86.53
2023-01-30T20:24:40.949Z,86.60
2023-01-30T20:27:12.227Z,86.90
2023-01-30T20:29:40.170Z,86.78
2023-01-30T20:32:09.479Z,86.49
2023-01-30T20:34:35.970Z,86.57
2023-01-30T20:37:02.754Z,86.56
2023-01-30T20:39:29.523Z,86.48
2023-01-30T20:41:57.041Z,86.97
2023-01-30T20:44:26.034Z,86.67
2023-01-30T20:46:57.005Z,86.72
2023-01-30T20:49:23.922Z,86.79
2023-01-30T20:51:57.139Z,86.84
2023-01-30T20:54:23.936Z,86.95
2023-01-30T20:56:53.221Z,87.08
2023-01-30T20:59:26.069Z,87.19
2023-01-30T21:01:54.123Z,87.51
2023-01-30T21:04:22.390Z,87.57
2023-01-30T21:06:49.033Z,87.67
2023-01-30T21:09:22.842Z,87.65
2023-01-30T21:11:53.061Z,87.91
2023-01-30T21:14:21.340Z,87.70
2023-01-30T21:16:48.252Z,87.93
2023-01-30T21:19:16.408Z,88.01
2023-01-30T21:21:51.265Z,87.85
2023-01-30T21:24:24.417Z,87.79
2023-01-30T21:26:56.422Z,87.96
2023-01-30T21:29:30.331Z,88.05
2023-01-30T21:31:58.880Z,87.96
2023-01-30T21:34:26.156Z,88.22
2023-01-30T21:37:12.674Z,88.12
2023-01-30T21:39:59.027Z,88.25
2023-01-30T21:42:44.686Z,88.35
2023-01-30T21:45:11.212Z,88.39
2023-01-30T21:47:39.963Z,88.43
2023-01-30T21:50:07.120Z,88.46
2023-01-30T21:52:33.673Z,88.68
2023-01-30T21:55:00.776Z,88.68
2023-01-30T21:57:27.323Z,88.90
2023-01-30T21:59:55.606Z,89.17
2023-01-30T22:02:22.387Z,89.10
2023-01-30T22:04:49.433Z,89.01
2023-01-30T22:07:16.262Z,89.15
2023-01-30T22:09:43.113Z,89.33
2023-01-30T22:12:12.338Z,89.27
2023-01-30T22:14:44.597Z,89.22
2023-01-30T22:17:11.285Z,89.16
2023-01-30T22:19:38.425Z,89.14
2023-01-30T22:22:05.146Z,89.12
2023-01-30T22:24:31.872Z,89.10
2023-01-30T22:26:59.083Z,89.02
2023-01-30T22:29:25.986Z,88.85
2023-01-30T22:31:52.845Z,88.96
2023-01-30T22:34:19.751Z,88.84
2023-01-30T22:36:48.257Z,88.69
2023-01-30T22:39:15.140Z,88.61
2023-01-30T22:41:42.147Z,88.76
2023-01-30T22:44:09.816Z,88.85
2023-01-30T22:46:40.329Z,89.04
2023-01-30T22:49:11.158Z,89.04
2023-01-30T22:51:40.708Z,89.11
2023-01-30T22:54:11.840Z,89.18
2023-01-30T22:56:40.987Z,89.29
2023-01-30T22:59:08.817Z,89.45
2023-01-30T23:01:39.255Z,89.56
2023-01-30T23:04:18.222Z,89.56
2023-01-30T23:06:45.467Z,89.76
2023-01-30T23:09:16.348Z,89.82
2023-01-30T23:12:06.363Z,89.89
2023-01-30T23:14:33.072Z,89.92
2023-01-30T23:16:59.940Z,89.85
2023-01-30T23:19:26.633Z,90.08
2023-01-30T23:21:53.155Z,90.04
2023-01-30T23:24:21.310Z,89.91
2023-01-30T23:26:51.056Z,90.11
2023-01-30T23:29:19.850Z,90.17
2023-01-30T23:31:50.032Z,90.15
2023-01-30T23:34:19.335Z,90.17
2023-01-30T23:36:49.570Z,90.24
2023-01-30T23:39:16.503Z,90.14
2023-01-30T23:41:44.226Z,90.25
2023-01-30T23:44:11.436Z,90.22
2023-01-30T23:46:40.238Z,90.33
2023-01-30T23:49:12.939Z,90.39
2023-01-30T23:51:41.762Z,90.36
2023-01-30T23:54:11.368Z,90.36
2023-01-30T23:56:40.258Z,90.22
2023-01-30T23:59:07.608Z,90.23
